createdAt,value
2022-12-14T00:01:36.299Z,29.35
2022-12-14T00:04:04.537Z,40.90
2022-12-14T00:06:33.085Z,37.03
2022-12-14T00:09:02.324Z,34.72
2022-12-14T00:11:29.518Z,31.15
2022-12-14T00:13:58.987Z,38.80
2022-12-14T00:16:29.062Z,41.90
2022-12-14T00:18:57.701Z,39.95
2022-12-14T00:21:25.717Z,46.50
2022-12-14T00:23:53.757Z,44.08
2022-12-14T00:26:31.934Z,37.30
2022-12-14T00:29:00.962Z,33.00
2022-12-14T00:31:28.153Z,44.38
2022-12-14T00:33:55.553Z,39.25
2022-12-14T00:36:24.404Z,38.85
2022-12-14T00:38:51.478Z,38.88
2022-12-14T00:41:18.373Z,33.83
2022-12-14T00:43:45.199Z,30.92
2022-12-14T00:46:16.861Z,31.98
2022-12-14T00:48:43.935Z,34.97
2022-12-14T00:51:10.735Z,42.42
2022-12-14T00:53:37.659Z,48.35
2022-12-14T00:56:06.478Z,37.40
2022-12-14T00:58:33.836Z,37.05
2022-12-14T01:01:02.890Z,31.30
2022-12-14T01:03:30.597Z,33.28
2022-12-14T01:05:57.778Z,37.30
2022-12-14T01:08:24.949Z,35.35
2022-12-14T01:10:52.242Z,41.58
2022-12-14T01:13:21.940Z,31.50
2022-12-14T01:15:49.223Z,40.08
2022-12-14T01:18:16.723Z,39.03
2022-12-14T01:20:43.575Z,30.35
2022-12-14T01:23:10.524Z,42.20
2022-12-14T01:25:37.411Z,41.33
2022-12-14T01:28:04.820Z,35.92
2022-12-14T01:30:31.708Z,32.80
2022-12-14T01:32:58.842Z,32.72
2022-12-14T01:35:25.633Z,38.97
2022-12-14T01:37:52.759Z,40.80
2022-12-14T01:40:19.943Z,34.53
2022-12-14T01:42:47.156Z,32.85
2022-12-14T01:45:22.337Z,38.40
2022-12-14T01:47:58.680Z,37.20
2022-12-14T01:50:37.128Z,31.90
2022-12-14T01:53:09.613Z,37.00
2022-12-14T01:55:48.687Z,27.55
2022-12-14T01:58:24.473Z,39.40
2022-12-14T02:00:57.797Z,39.20
2022-12-14T02:03:36.271Z,36.17
2022-12-14T02:06:17.078Z,34.05
2022-12-14T02:08:45.666Z,26.85
2022-12-14T02:11:12.589Z,34.08
2022-12-14T02:13:41.610Z,28.00
2022-12-14T02:16:09.343Z,25.23
2022-12-14T02:18:36.232Z,31.48
2022-12-14T02:21:31.414Z,29.58
2022-12-14T02:24:22.717Z,24.58
2022-12-14T02:27:27.378Z,25.35
2022-12-14T02:30:23.023Z,31.83
2022-12-14T02:33:07.874Z,34.78
2022-12-14T02:35:34.675Z,33.78
2022-12-14T02:38:17.180Z,41.17
2022-12-14T02:40:59.160Z,29.65
2022-12-14T02:43:37.577Z,27.00
2022-12-14T02:46:11.681Z,29.90
2022-12-14T02:49:06.575Z,31.52
2022-12-14T02:52:03.025Z,25.40
2022-12-14T02:54:38.426Z,35.83
2022-12-14T02:57:31.331Z,33.47
2022-12-14T03:00:02.082Z,31.73
2022-12-14T03:02:30.515Z,26.08
2022-12-14T03:04:58.997Z,33.00
2022-12-14T03:07:38.122Z,26.60
2022-12-14T03:10:25.380Z,25.60
2022-12-14T03:13:15.976Z,25.50
2022-12-14T03:15:48.288Z,31.63
2022-12-14T03:18:21.170Z,26.80
2022-12-14T03:20:50.845Z,31.88
2022-12-14T03:23:32.607Z,31.67
2022-12-14T03:26:15.922Z,32.25
2022-12-14T03:28:59.975Z,29.02
2022-12-14T03:31:42.144Z,31.40
2022-12-14T03:34:14.130Z,31.35
2022-12-14T03:36:52.565Z,31.17
2022-12-14T03:39:28.804Z,29.38
2022-12-14T03:42:10.974Z,28.15
2022-12-14T03:44:49.366Z,31.83
2022-12-14T03:47:37.366Z,36.75
2022-12-14T03:50:14.550Z,32.10
2022-12-14T03:53:02.035Z,33.08
2022-12-14T03:55:36.415Z,25.85
2022-12-14T03:58:15.968Z,32.97
2022-12-14T04:00:55.745Z,35.47
2022-12-14T04:04:14.303Z,29.27
2022-12-14T04:06:50.017Z,38.40
2022-12-14T04:09:25.857Z,41.35
2022-12-14T04:12:28.548Z,39.17
2022-12-14T04:15:27.302Z,44.90
2022-12-14T04:18:17.633Z,39.17
2022-12-14T04:20:55.861Z,33.55
2022-12-14T04:23:53.022Z,36.70
2022-12-14T04:26:24.810Z,34.42
2022-12-14T04:29:15.636Z,40.55
2022-12-14T04:31:49.116Z,31.92
2022-12-14T04:34:18.921Z,36.97
2022-12-14T04:36:51.990Z,35.53
2022-12-14T04:39:37.520Z,36.53
2022-12-14T04:42:08.340Z,31.17
2022-12-14T04:44:42.505Z,35.75
2022-12-14T04:47:11.148Z,25.67
2022-12-14T04:50:03.190Z,38.53
2022-12-14T04:52:40.295Z,40.05
2022-12-14T04:55:36.655Z,37.55
2022-12-14T04:58:34.046Z,33.65
2022-12-14T05:01:32.948Z,28.20
2022-12-14T05:04:23.936Z,35.58
2022-12-14T05:07:16.589Z,29.75
2022-12-14T05:10:07.438Z,45.47
2022-12-14T05:12:50.041Z,36.35
2022-12-14T05:15:28.939Z,33.53
2022-12-14T05:17:56.018Z,31.05
2022-12-14T05:20:24.666Z,36.55
2022-12-14T05:22:51.681Z,50.35
2022-12-14T05:25:18.894Z,38.05
2022-12-14T05:27:46.282Z,42.88
2022-12-14T05:30:13.743Z,45.83
2022-12-14T05:32:40.789Z,44.22
2022-12-14T05:35:08.800Z,59.78
2022-12-14T05:37:35.598Z,44.30
2022-12-14T05:40:03.277Z,51.13
2022-12-14T05:42:31.410Z,53.03
2022-12-14T05:44:58.445Z,52.40
2022-12-14T05:47:25.771Z,55.22
2022-12-14T05:49:52.522Z,58.97
2022-12-14T05:52:20.245Z,50.63
2022-12-14T05:54:47.398Z,39.58
2022-12-14T05:57:14.267Z,55.75
2022-12-14T05:59:41.474Z,50.75
2022-12-14T06:02:08.524Z,39.22
2022-12-14T06:04:35.672Z,44.70
2022-12-14T06:07:02.764Z,46.67
2022-12-14T06:09:29.650Z,41.15
2022-12-14T06:11:56.577Z,58.58
2022-12-14T06:14:25.332Z,45.80
2022-12-14T06:16:52.322Z,46.13
2022-12-14T06:19:19.413Z,39.28
2022-12-14T06:21:46.336Z,44.33
2022-12-14T06:24:14.121Z,36.50
2022-12-14T06:26:41.334Z,39.67
2022-12-14T06:29:13.425Z,33.72
2022-12-14T06:31:40.706Z,33.90
2022-12-14T06:34:08.771Z,41.22
2022-12-14T06:36:38.188Z,44.58
2022-12-14T06:39:12.853Z,43.63
2022-12-14T06:41:40.693Z,41.13
2022-12-14T06:44:11.332Z,44.25
2022-12-14T06:46:38.875Z,45.92
2022-12-14T06:49:06.626Z,45.53
2022-12-14T06:51:39.521Z,38.38
2022-12-14T06:54:07.109Z,48.92
2022-12-14T06:56:33.996Z,40.50
2022-12-14T06:59:00.806Z,46.58
2022-12-14T07:01:28.729Z,60.72
2022-12-14T07:03:57.739Z,53.70
2022-12-14T07:06:26.574Z,51.75
2022-12-14T07:08:58.087Z,58.20
2022-12-14T07:11:26.766Z,50.47
2022-12-14T07:13:54.386Z,40.40
2022-12-14T07:16:26.269Z,50.08
2022-12-14T07:18:54.696Z,52.75
2022-12-14T07:21:22.821Z,52.25
2022-12-14T07:23:52.488Z,44.45
2022-12-14T07:26:22.807Z,48.25
2022-12-14T07:28:50.764Z,55.95
2022-12-14T07:31:21.186Z,48.95
2022-12-14T07:33:48.698Z,42.67
2022-12-14T07:36:20.240Z,50.70
2022-12-14T07:38:49.853Z,56.70
2022-12-14T07:41:22.417Z,55.28
2022-12-14T07:43:51.037Z,53.63
2022-12-14T07:46:20.849Z,53.45
2022-12-14T07:48:49.953Z,49.85
2022-12-14T07:51:19.281Z,54.15
2022-12-14T07:53:46.260Z,57.13
2022-12-14T07:56:22.480Z,78.10
2022-12-14T07:58:49.847Z,62.10
2022-12-14T08:01:20.612Z,61.50
2022-12-14T08:03:50.778Z,71.95
2022-12-14T08:06:19.662Z,61.15
2022-12-14T08:08:47.004Z,70.43
2022-12-14T08:11:16.838Z,63.85
2022-12-14T08:13:44.155Z,68.60
2022-12-14T08:16:13.646Z,64.40
2022-12-14T08:18:41.537Z,60.15
2022-12-14T08:21:10.942Z,56.30
2022-12-14T08:23:38.150Z,56.00
2022-12-14T08:26:06.353Z,53.45
2022-12-14T08:28:35.345Z,50.13
2022-12-14T08:31:29.578Z,56.80
2022-12-14T08:33:59.069Z,47.50
2022-12-14T08:36:29.674Z,53.20
2022-12-14T08:38:59.212Z,53.70
2022-12-14T08:41:26.938Z,54.33
2022-12-14T08:43:56.034Z,57.10
2022-12-14T08:46:24.418Z,64.35
2022-12-14T08:48:52.866Z,60.75
2022-12-14T08:51:20.447Z,61.92
2022-12-14T08:53:49.944Z,66.25
2022-12-14T08:56:19.764Z,58.60
2022-12-14T08:58:47.264Z,67.88
2022-12-14T09:01:20.170Z,65.07
2022-12-14T09:03:48.279Z,63.60
2022-12-14T09:06:18.400Z,56.30
2022-12-14T09:08:47.195Z,77.90
2022-12-14T09:11:19.126Z,93.18
2022-12-14T09:13:46.835Z,59.25
2022-12-14T09:16:16.819Z,56.20
2022-12-14T09:18:44.069Z,62.30
2022-12-14T09:21:11.736Z,66.88
2022-12-14T09:23:40.167Z,61.83
2022-12-14T09:26:23.573Z,66.35
2022-12-14T09:28:56.078Z,61.33
2022-12-14T09:31:25.390Z,60.90
2022-12-14T09:33:53.275Z,55.55
2022-12-14T09:36:22.167Z,60.90
2022-12-14T09:38:51.885Z,72.28
2022-12-14T09:41:34.239Z,73.65
2022-12-14T09:44:20.076Z,76.35
2022-12-14T09:47:02.363Z,62.97
2022-12-14T09:49:29.152Z,63.80
2022-12-14T09:51:59.570Z,67.50
2022-12-14T09:54:35.065Z,78.57
2022-12-14T09:57:09.134Z,74.95
2022-12-14T09:59:36.170Z,78.10
2022-12-14T10:05:12.002Z,68.05
2022-12-14T10:07:44.911Z,71.90
2022-12-14T10:10:19.726Z,73.30
2022-12-14T10:13:02.864Z,70.53
2022-12-14T10:15:41.774Z,59.38
2022-12-14T10:18:49.848Z,71.72
2022-12-14T10:21:17.388Z,70.88
2022-12-14T10:23:58.091Z,76.00
2022-12-14T10:26:35.884Z,91.15
2022-12-14T10:29:10.617Z,74.30
2022-12-14T10:32:05.284Z,74.45
2022-12-14T10:34:33.612Z,70.68
2022-12-14T10:37:12.073Z,63.90
2022-12-14T10:40:16.449Z,69.32
2022-12-14T10:43:18.978Z,69.75
2022-12-14T10:45:55.011Z,67.20
2022-12-14T10:48:44.604Z,71.63
2022-12-14T10:51:22.046Z,68.78
2022-12-14T10:54:17.843Z,67.57
2022-12-14T10:56:49.738Z,63.75
2022-12-14T10:59:26.506Z,79.00
2022-12-14T11:02:02.376Z,73.65
2022-12-14T11:04:32.200Z,68.60
2022-12-14T11:07:05.249Z,57.28
2022-12-14T11:09:32.612Z,67.75
2022-12-14T11:12:16.005Z,74.53
2022-12-14T11:15:01.199Z,68.63
2022-12-14T11:17:36.127Z,62.22
2022-12-14T11:20:23.384Z,74.32
2022-12-14T11:22:52.957Z,69.65
2022-12-14T11:25:50.058Z,70.97
2022-12-14T11:28:37.401Z,64.18
2022-12-14T11:31:32.761Z,56.63
2022-12-14T11:34:01.856Z,57.25
2022-12-14T11:36:38.602Z,59.58
2022-12-14T11:39:07.375Z,66.30
2022-12-14T11:41:37.493Z,61.50
2022-12-14T11:44:26.296Z,62.75
2022-12-14T11:46:59.228Z,65.65
2022-12-14T11:49:34.948Z,56.70
2022-12-14T11:52:07.145Z,66.68
2022-12-14T11:54:37.272Z,76.07
2022-12-14T11:57:18.174Z,75.70
2022-12-14T11:59:49.678Z,65.95
2022-12-14T12:02:22.188Z,59.95
2022-12-14T12:04:59.811Z,68.68
2022-12-14T12:07:33.818Z,65.00
2022-12-14T12:10:12.951Z,74.88
2022-12-14T12:12:52.267Z,72.07
2022-12-14T12:15:35.704Z,67.55
2022-12-14T12:18:22.209Z,68.68
2022-12-14T12:21:00.798Z,68.32
2022-12-14T12:23:38.332Z,78.88
2022-12-14T12:26:15.156Z,76.10
2022-12-14T12:28:48.025Z,79.25
2022-12-14T12:31:22.757Z,96.15
2022-12-14T12:34:41.703Z,98.65
2022-12-14T12:37:26.398Z,76.90
2022-12-14T12:39:59.280Z,88.47
2022-12-14T12:42:57.180Z,89.45
2022-12-14T12:45:52.588Z,93.97
2022-12-14T12:48:27.691Z,92.63
2022-12-14T12:51:01.174Z,86.63
2022-12-14T12:53:43.909Z,101.25
2022-12-14T12:56:17.049Z,92.30
2022-12-14T12:58:52.951Z,97.35
2022-12-14T13:01:23.468Z,87.20
2022-12-14T13:03:54.802Z,90.00
2022-12-14T13:06:55.944Z,82.25
2022-12-14T13:09:43.627Z,71.63
2022-12-14T13:12:47.996Z,79.78
2022-12-14T13:15:27.360Z,80.15
2022-12-14T13:18:48.829Z,81.13
2022-12-14T13:21:18.005Z,78.00
2022-12-14T13:23:45.793Z,77.78
2022-12-14T13:26:56.244Z,83.10
2022-12-14T13:30:00.181Z,80.95
2022-12-14T13:32:46.269Z,75.68
2022-12-14T13:35:31.307Z,95.22
2022-12-14T13:38:36.167Z,88.75
2022-12-14T13:41:36.398Z,99.63
2022-12-14T13:44:37.232Z,90.95
2022-12-14T13:47:15.599Z,83.13
2022-12-14T13:50:26.668Z,86.05
2022-12-14T13:52:46.149Z,117.10
2022-12-14T13:55:46.220Z,90.32
2022-12-14T13:58:39.368Z,89.20
2022-12-14T14:01:11.836Z,73.10
2022-12-14T14:03:38.733Z,74.13
2022-12-14T14:06:11.527Z,75.20
2022-12-14T14:08:42.345Z,78.05
2022-12-14T14:11:37.564Z,73.00
2022-12-14T14:14:30.405Z,70.78
2022-12-14T14:17:01.115Z,69.00
2022-12-14T14:19:34.909Z,76.75
2022-12-14T14:22:24.265Z,71.70
2022-12-14T14:25:02.058Z,69.43
2022-12-14T14:27:35.109Z,81.25
2022-12-14T14:30:02.794Z,86.00
2022-12-14T14:32:39.138Z,90.30
2022-12-14T14:35:21.003Z,67.03
2022-12-14T14:37:59.364Z,66.90
2022-12-14T14:41:15.628Z,119.25
2022-12-14T14:43:34.991Z,84.30
2022-12-14T14:46:07.475Z,90.43
2022-12-14T14:48:50.092Z,90.38
2022-12-14T14:51:20.935Z,88.68
2022-12-14T14:53:50.400Z,85.43
2022-12-14T14:56:38.258Z,81.35
2022-12-14T14:59:17.194Z,93.35
2022-12-14T15:02:28.296Z,88.47
2022-12-14T15:04:57.197Z,82.32
2022-12-14T15:07:30.265Z,83.35
2022-12-14T15:10:22.373Z,58.58
2022-12-14T15:12:54.656Z,61.15
2022-12-14T15:15:45.271Z,56.08
2022-12-14T15:18:23.983Z,67.90
2022-12-14T15:21:07.849Z,57.40
2022-12-14T15:23:50.442Z,61.85
2022-12-14T15:26:27.730Z,64.03
2022-12-14T15:28:58.815Z,58.00
2022-12-14T15:31:34.520Z,63.20
2022-12-14T15:34:02.652Z,65.28
2022-12-14T15:36:37.539Z,77.82
2022-12-14T15:39:05.019Z,56.75
2022-12-14T15:41:33.528Z,49.40
2022-12-14T15:44:00.955Z,53.97
2022-12-14T15:46:35.644Z,50.13
2022-12-14T15:49:05.377Z,60.45
2022-12-14T15:51:36.978Z,62.55
2022-12-14T15:54:06.710Z,64.45
2022-12-14T15:56:40.729Z,61.72
2022-12-14T15:59:25.231Z,65.35
2022-12-14T16:02:15.581Z,61.55
2022-12-14T16:04:43.443Z,70.88
2022-12-14T16:07:18.834Z,60.35
2022-12-14T16:09:57.357Z,54.25
2022-12-14T16:12:44.700Z,50.78
2022-12-14T16:15:25.947Z,50.40
2022-12-14T16:18:01.544Z,67.05
2022-12-14T16:20:31.975Z,54.75
2022-12-14T16:23:06.871Z,60.53
2022-12-14T16:25:36.145Z,79.60
2022-12-14T16:28:31.257Z,55.20
2022-12-14T16:31:11.620Z,67.22
2022-12-14T16:33:40.982Z,61.95
2022-12-14T16:36:18.201Z,60.75
2022-12-14T16:38:56.078Z,64.45
2022-12-14T16:42:05.087Z,95.97
2022-12-14T16:44:35.070Z,66.35
2022-12-14T16:47:04.684Z,77.78
2022-12-14T16:49:41.374Z,74.65
2022-12-14T16:52:17.557Z,73.70
2022-12-14T16:55:09.080Z,65.07
2022-12-14T16:57:58.719Z,69.32
2022-12-14T17:00:29.679Z,73.28
2022-12-14T17:03:02.191Z,99.70
2022-12-14T17:05:39.527Z,76.50
2022-12-14T17:08:07.809Z,66.78
2022-12-14T17:10:35.685Z,72.90
2022-12-14T17:13:03.811Z,67.43
2022-12-14T17:15:34.216Z,61.20
2022-12-14T17:18:04.445Z,70.28
2022-12-14T17:20:36.681Z,68.07
2022-12-14T17:23:07.340Z,80.20
2022-12-14T17:25:34.344Z,63.70
2022-12-14T17:28:02.101Z,71.90
2022-12-14T17:30:29.005Z,74.93
2022-12-14T17:32:57.896Z,76.82
2022-12-14T17:35:31.437Z,72.90
2022-12-14T17:37:59.523Z,75.55
2022-12-14T17:40:27.174Z,68.38
2022-12-14T17:42:56.751Z,76.63
2022-12-14T17:45:29.148Z,75.50
2022-12-14T17:47:56.495Z,69.57
2022-12-14T17:50:25.155Z,71.93
2022-12-14T17:52:52.012Z,64.88
2022-12-14T17:55:28.311Z,58.80
2022-12-14T17:57:55.982Z,62.00
2022-12-14T18:00:47.435Z,89.85
2022-12-14T18:03:17.019Z,62.17
2022-12-14T18:05:48.827Z,74.72
2022-12-14T18:08:17.516Z,60.38
2022-12-14T18:10:44.751Z,64.25
2022-12-14T18:13:12.918Z,59.80
2022-12-14T18:15:51.381Z,67.78
2022-12-14T18:18:23.212Z,66.28
2022-12-14T18:20:54.083Z,77.78
2022-12-14T18:23:22.184Z,99.55
2022-12-14T18:25:52.525Z,108.90
2022-12-14T18:28:19.858Z,105.35
2022-12-14T18:30:54.352Z,110.85
2022-12-14T18:33:24.307Z,131.48
2022-12-14T18:35:52.806Z,103.88
2022-12-14T18:38:22.589Z,104.93
2022-12-14T18:40:52.372Z,130.10
2022-12-14T18:43:24.954Z,109.13
2022-12-14T18:45:53.696Z,106.35
2022-12-14T18:48:21.620Z,117.03
2022-12-14T18:50:50.191Z,84.32
2022-12-14T18:53:19.366Z,94.65
2022-12-14T18:55:47.441Z,87.60
2022-12-14T18:58:18.645Z,91.38
2022-12-14T19:00:46.861Z,74.57
2022-12-14T19:03:15.368Z,84.95
2022-12-14T19:05:43.337Z,61.75
2022-12-14T19:08:10.941Z,75.90
2022-12-14T19:10:41.956Z,88.35
2022-12-14T19:13:21.789Z,74.65
2022-12-14T19:15:52.769Z,89.80
2022-12-14T19:18:22.682Z,78.25
2022-12-14T19:20:50.029Z,63.38
2022-12-14T19:23:19.127Z,68.88
2022-12-14T19:25:46.623Z,87.40
2022-12-14T19:28:42.144Z,72.05
2022-12-14T19:31:01.832Z,67.03
2022-12-14T19:33:29.299Z,84.15
2022-12-14T19:35:56.765Z,73.15
2022-12-14T19:38:23.536Z,79.30
2022-12-14T19:41:00.022Z,75.32
2022-12-14T19:43:28.141Z,66.07
2022-12-14T19:45:55.809Z,84.43
2022-12-14T19:48:23.176Z,81.43
2022-12-14T19:50:49.949Z,86.53
2022-12-14T19:53:23.053Z,67.05
2022-12-14T19:55:53.657Z,66.00
2022-12-14T19:58:22.068Z,74.85
2022-12-14T20:00:50.230Z,77.00
2022-12-14T20:03:17.876Z,81.88
2022-12-14T20:05:52.816Z,86.15
2022-12-14T20:08:20.211Z,82.47
2022-12-14T20:10:47.767Z,80.28
2022-12-14T20:13:14.671Z,91.57
2022-12-14T20:15:51.923Z,83.13
2022-12-14T20:18:19.937Z,104.90
2022-12-14T20:20:49.616Z,82.95
2022-12-14T20:23:18.323Z,84.53
2022-12-14T20:25:45.737Z,82.40
2022-12-14T20:28:13.352Z,100.18
2022-12-14T20:30:45.898Z,82.35
2022-12-14T20:33:13.275Z,79.60
2022-12-14T20:35:40.570Z,79.13
2022-12-14T20:38:07.408Z,83.15
2022-12-14T20:40:38.420Z,104.28
2022-12-14T20:43:06.451Z,98.32
2022-12-14T20:45:41.967Z,85.35
2022-12-14T20:48:09.015Z,89.60
2022-12-14T20:50:38.367Z,98.97
2022-12-14T20:53:05.836Z,83.97
2022-12-14T20:55:33.319Z,75.40
2022-12-14T20:58:00.753Z,69.18
2022-12-14T21:00:28.446Z,78.32
2022-12-14T21:02:55.826Z,80.18
2022-12-14T21:05:22.708Z,80.72
2022-12-14T21:07:49.704Z,76.55
2022-12-14T21:10:16.697Z,77.78
2022-12-14T21:12:43.522Z,92.43
2022-12-14T21:15:10.427Z,97.28
2022-12-14T21:17:37.367Z,92.97
2022-12-14T21:20:06.205Z,83.03
2022-12-14T21:22:35.339Z,105.60
2022-12-14T21:25:05.172Z,104.10
2022-12-14T21:27:34.649Z,117.30
2022-12-14T21:30:01.560Z,140.10
2022-12-14T21:32:29.092Z,97.15
2022-12-14T21:34:56.008Z,105.93
2022-12-14T21:37:23.274Z,100.18
2022-12-14T21:39:54.751Z,93.78
2022-12-14T21:42:25.769Z,93.38
2022-12-14T21:44:54.147Z,83.15
2022-12-14T21:47:24.911Z,92.40
2022-12-14T21:49:51.912Z,113.18
2022-12-14T21:52:21.468Z,77.75
2022-12-14T21:54:48.335Z,63.55
2022-12-14T21:57:39.383Z,79.65
2022-12-14T22:03:00.439Z,73.43
2022-12-14T22:05:28.456Z,87.03
2022-12-14T22:07:55.563Z,75.50
2022-12-14T22:10:25.036Z,89.45
2022-12-14T22:12:52.630Z,82.47
2022-12-14T22:15:20.188Z,91.88
2022-12-14T22:17:49.341Z,77.03
2022-12-14T22:20:17.038Z,79.10
2022-12-14T22:22:45.059Z,68.35
2022-12-14T22:25:12.729Z,86.60
2022-12-14T22:27:39.904Z,72.88
2022-12-14T22:30:08.784Z,65.43
2022-12-14T22:32:36.566Z,75.03
2022-12-14T22:35:04.328Z,81.20
2022-12-14T22:37:31.526Z,86.65
2022-12-14T22:39:58.908Z,65.80
2022-12-14T22:42:26.198Z,75.03
2022-12-14T22:44:54.721Z,59.80
2022-12-14T22:47:23.006Z,75.40
2022-12-14T22:49:50.356Z,72.82
2022-12-14T22:52:23.007Z,79.30
2022-12-14T22:54:55.904Z,70.25
2022-12-14T22:57:23.560Z,79.57
2022-12-14T22:59:59.912Z,64.80
2022-12-14T23:02:30.070Z,69.57
2022-12-14T23:12:11.468Z,78.15
2022-12-14T23:14:58.282Z,60.15
2022-12-14T23:17:44.274Z,71.78
2022-12-14T23:20:29.766Z,64.97
2022-12-14T23:23:15.917Z,68.97
2022-12-14T23:26:01.620Z,73.45
2022-12-14T23:28:51.025Z,60.45
2022-12-14T23:42:29.830Z,71.63
2022-12-14T23:45:15.582Z,58.97
2022-12-14T23:48:01.144Z,79.65
2022-12-14T23:50:46.674Z,81.50
2022-12-14T23:53:32.625Z,60.38
2022-12-14T23:56:19.094Z,62.60
2022-12-14T23:59:04.844Z,64.43
